sensor_id;sensor_type;location;lat;lon;timestamp;P1;durP1;ratioP1;P2;durP2;ratioP2
14251;SDS011;7210;51.502;10.722;2023-02-24T00:01:00;35.63;;;17.60;;
14251;SDS011;7210;51.502;10.722;2023-02-24T00:03:37;36.73;;;18.10;;
14251;SDS011;7210;51.502;10.722;2023-02-24T00:06:09;38.80;;;18.37;;
14251;SDS011;7210;51.502;10.722;2023-02-24T00:08:37;38.27;;;18.20;;
14251;SDS011;7210;51.502;10.722;2023-02-24T00:11:09;35.60;;;17.83;;
14251;SDS011;7210;51.502;10.722;2023-02-24T00:13:42;35.73;;;17.43;;
14251;SDS011;7210;51.502;10.722;2023-02-24T00:16:12;38.00;;;16.50;;
14251;SDS011;7210;51.502;10.722;2023-02-24T00:18:42;37.77;;;17.30;;
14251;SDS011;7210;51.502;10.722;2023-02-24T00:21:10;35.03;;;16.80;;
14251;SDS011;7210;51.502;10.722;2023-02-24T00:23:40;38.00;;;17.77;;
14251;SDS011;7210;51.502;10.722;2023-02-24T00:26:12;34.73;;;17.90;;
14251;SDS011;7210;51.502;10.722;2023-02-24T00:28:41;42.43;;;18.23;;
14251;SDS011;7210;51.502;10.722;2023-02-24T00:31:10;40.40;;;18.13;;
14251;SDS011;7210;51.502;10.722;2023-02-24T00:33:41;41.13;;;17.40;;
14251;SDS011;7210;51.502;10.722;2023-02-24T00:36:11;43.33;;;18.37;;
14251;SDS011;7210;51.502;10.722;2023-02-24T00:38:42;38.60;;;18.37;;
14251;SDS011;7210;51.502;10.722;2023-02-24T00:41:13;39.03;;;16.97;;
14251;SDS011;7210;51.502;10.722;2023-02-24T00:43:43;40.47;;;16.20;;
14251;SDS011;7210;51.502;10.722;2023-02-24T00:46:12;27.20;;;12.37;;
14251;SDS011;7210;51.502;10.722;2023-02-24T00:48:41;11.67;;;6.57;;
14251;SDS011;7210;51.502;10.722;2023-02-24T00:51:11;11.27;;;5.67;;
14251;SDS011;7210;51.502;10.722;2023-02-24T00:53:42;12.33;;;6.00;;
14251;SDS011;7210;51.502;10.722;2023-02-24T00:56:10;15.07;;;8.00;;
14251;SDS011;7210;51.502;10.722;2023-02-24T00:58:40;18.60;;;8.67;;
14251;SDS011;7210;51.502;10.722;2023-02-24T01:01:12;20.60;;;8.77;;
14251;SDS011;7210;51.502;10.722;2023-02-24T01:03:41;19.97;;;8.13;;
14251;SDS011;7210;51.502;10.722;2023-02-24T01:06:09;16.23;;;7.63;;
14251;SDS011;7210;51.502;10.722;2023-02-24T01:08:38;19.53;;;8.03;;
14251;SDS011;7210;51.502;10.722;2023-02-24T01:11:12;17.63;;;8.10;;
14251;SDS011;7210;51.502;10.722;2023-02-24T01:14:02;20.67;;;7.73;;
14251;SDS011;7210;51.502;10.722;2023-02-24T01:16:30;19.10;;;7.57;;
14251;SDS011;7210;51.502;10.722;2023-02-24T01:18:57;17.87;;;7.40;;
14251;SDS011;7210;51.502;10.722;2023-02-24T01:21:24;19.70;;;7.70;;
14251;SDS011;7210;51.502;10.722;2023-02-24T01:23:51;18.57;;;8.07;;
14251;SDS011;7210;51.502;10.722;2023-02-24T01:26:20;18.03;;;6.87;;
14251;SDS011;7210;51.502;10.722;2023-02-24T01:28:50;18.23;;;6.67;;
14251;SDS011;7210;51.502;10.722;2023-02-24T01:31:19;18.83;;;6.53;;
14251;SDS011;7210;51.502;10.722;2023-02-24T01:33:49;15.03;;;5.40;;
14251;SDS011;7210;51.502;10.722;2023-02-24T01:36:18;17.47;;;6.37;;
14251;SDS011;7210;51.502;10.722;2023-02-24T01:38:48;14.33;;;6.07;;
14251;SDS011;7210;51.502;10.722;2023-02-24T01:41:16;15.30;;;6.40;;
14251;SDS011;7210;51.502;10.722;2023-02-24T01:43:57;21.77;;;6.87;;
14251;SDS011;7210;51.502;10.722;2023-02-24T01:46:28;19.27;;;6.30;;
14251;SDS011;7210;51.502;10.722;2023-02-24T01:48:59;17.07;;;6.00;;
14251;SDS011;7210;51.502;10.722;2023-02-24T01:51:33;15.83;;;5.00;;
14251;SDS011;7210;51.502;10.722;2023-02-24T01:54:08;15.20;;;5.80;;
14251;SDS011;7210;51.502;10.722;2023-02-24T01:56:40;14.90;;;4.80;;
14251;SDS011;7210;51.502;10.722;2023-02-24T01:59:11;10.87;;;4.43;;
14251;SDS011;7210;51.502;10.722;2023-02-24T02:01:40;13.63;;;3.77;;
14251;SDS011;7210;51.502;10.722;2023-02-24T02:04:11;10.80;;;3.60;;
14251;SDS011;7210;51.502;10.722;2023-02-24T02:06:46;10.83;;;3.10;;
14251;SDS011;7210;51.502;10.722;2023-02-24T02:09:14;9.37;;;3.37;;
14251;SDS011;7210;51.502;10.722;2023-02-24T02:11:48;12.43;;;2.87;;
14251;SDS011;7210;51.502;10.722;2023-02-24T02:14:17;11.60;;;2.63;;
14251;SDS011;7210;51.502;10.722;2023-02-24T02:16:58;11.73;;;2.33;;
14251;SDS011;7210;51.502;10.722;2023-02-24T02:26:27;13.37;;;3.67;;
14251;SDS011;7210;51.502;10.722;2023-02-24T02:29:25;12.07;;;2.80;;
14251;SDS011;7210;51.502;10.722;2023-02-24T02:32:50;11.90;;;2.63;;
14251;SDS011;7210;51.502;10.722;2023-02-24T02:35:48;12.77;;;2.80;;
14251;SDS011;7210;51.502;10.722;2023-02-24T02:38:31;14.77;;;2.63;;
14251;SDS011;7210;51.502;10.722;2023-02-24T02:41:11;7.83;;;2.13;;
14251;SDS011;7210;51.502;10.722;2023-02-24T02:43:50;14.60;;;3.00;;
14251;SDS011;7210;51.502;10.722;2023-02-24T02:46:30;12.43;;;2.97;;
14251;SDS011;7210;51.502;10.722;2023-02-24T02:49:10;10.07;;;3.43;;
14251;SDS011;7210;51.502;10.722;2023-02-24T02:51:47;13.40;;;3.13;;
14251;SDS011;7210;51.502;10.722;2023-02-24T02:54:21;11.97;;;2.83;;
14251;SDS011;7210;51.502;10.722;2023-02-24T02:56:58;8.07;;;2.60;;
14251;SDS011;7210;51.502;10.722;2023-02-24T02:59:33;13.37;;;3.33;;
14251;SDS011;7210;51.502;10.722;2023-02-24T03:02:07;16.87;;;3.37;;
14251;SDS011;7210;51.502;10.722;2023-02-24T03:04:41;18.67;;;3.47;;
14251;SDS011;7210;51.502;10.722;2023-02-24T03:07:17;17.20;;;3.80;;
14251;SDS011;7210;51.502;10.722;2023-02-24T03:10:46;11.47;;;3.33;;
14251;SDS011;7210;51.502;10.722;2023-02-24T03:13:16;8.07;;;2.67;;
14251;SDS011;7210;51.502;10.722;2023-02-24T03:15:50;15.43;;;3.27;;
14251;SDS011;7210;51.502;10.722;2023-02-24T03:21:37;14.50;;;3.60;;
14251;SDS011;7210;51.502;10.722;2023-02-24T03:24:12;14.53;;;3.83;;
14251;SDS011;7210;51.502;10.722;2023-02-24T03:26:45;17.40;;;4.10;;
14251;SDS011;7210;51.502;10.722;2023-02-24T03:29:20;13.37;;;3.60;;
14251;SDS011;7210;51.502;10.722;2023-02-24T03:32:01;21.57;;;4.70;;
14251;SDS011;7210;51.502;10.722;2023-02-24T03:34:38;16.03;;;4.17;;
14251;SDS011;7210;51.502;10.722;2023-02-24T03:37:17;17.20;;;4.07;;
14251;SDS011;7210;51.502;10.722;2023-02-24T03:39:53;19.63;;;4.83;;
14251;SDS011;7210;51.502;10.722;2023-02-24T03:42:32;14.90;;;4.10;;
14251;SDS011;7210;51.502;10.722;2023-02-24T03:45:00;24.20;;;5.03;;
14251;SDS011;7210;51.502;10.722;2023-02-24T03:47:30;15.47;;;4.67;;
14251;SDS011;7210;51.502;10.722;2023-02-24T03:49:58;17.13;;;4.70;;
14251;SDS011;7210;51.502;10.722;2023-02-24T03:52:27;18.07;;;4.23;;
14251;SDS011;7210;51.502;10.722;2023-02-24T03:55:10;20.57;;;4.33;;
14251;SDS011;7210;51.502;10.722;2023-02-24T03:57:53;19.63;;;4.60;;
14251;SDS011;7210;51.502;10.722;2023-02-24T04:00:43;16.37;;;4.53;;
14251;SDS011;7210;51.502;10.722;2023-02-24T04:03:24;16.73;;;4.33;;
14251;SDS011;7210;51.502;10.722;2023-02-24T04:06:10;23.70;;;4.97;;
14251;SDS011;7210;51.502;10.722;2023-02-24T04:08:48;19.47;;;3.90;;
14251;SDS011;7210;51.502;10.722;2023-02-24T04:11:28;19.17;;;4.97;;
14251;SDS011;7210;51.502;10.722;2023-02-24T04:14:04;17.60;;;4.17;;
14251;SDS011;7210;51.502;10.722;2023-02-24T04:16:42;20.93;;;4.20;;
14251;SDS011;7210;51.502;10.722;2023-02-24T04:19:21;19.07;;;4.70;;
14251;SDS011;7210;51.502;10.722;2023-02-24T04:21:54;16.23;;;4.77;;
14251;SDS011;7210;51.502;10.722;2023-02-24T04:24:25;16.37;;;4.70;;
14251;SDS011;7210;51.502;10.722;2023-02-24T04:26:58;16.57;;;4.93;;
14251;SDS011;7210;51.502;10.722;2023-02-24T04:29:33;21.17;;;4.70;;
14251;SDS011;7210;51.502;10.722;2023-02-24T04:32:12;18.00;;;4.73;;
14251;SDS011;7210;51.502;10.722;2023-02-24T04:34:44;19.20;;;5.10;;
14251;SDS011;7210;51.502;10.722;2023-02-24T04:37:11;22.23;;;4.67;;
14251;SDS011;7210;51.502;10.722;2023-02-24T04:39:39;21.67;;;5.00;;
14251;SDS011;7210;51.502;10.722;2023-02-24T04:42:20;14.73;;;5.10;;
14251;SDS011;7210;51.502;10.722;2023-02-24T04:44:49;18.77;;;5.73;;
14251;SDS011;7210;51.502;10.722;2023-02-24T04:47:19;21.37;;;5.87;;
14251;SDS011;7210;51.502;10.722;2023-02-24T04:49:46;19.67;;;4.87;;
14251;SDS011;7210;51.502;10.722;2023-02-24T04:52:13;18.07;;;5.00;;
14251;SDS011;7210;51.502;10.722;2023-02-24T04:54:40;14.97;;;5.03;;
14251;SDS011;7210;51.502;10.722;2023-02-24T04:57:08;18.97;;;5.60;;
14251;SDS011;7210;51.502;10.722;2023-02-24T04:59:38;15.80;;;5.90;;
14251;SDS011;7210;51.502;10.722;2023-02-24T05:02:05;23.37;;;5.60;;
14251;SDS011;7210;51.502;10.722;2023-02-24T05:04:33;20.60;;;7.20;;
14251;SDS011;7210;51.502;10.722;2023-02-24T05:07:03;21.93;;;6.00;;
14251;SDS011;7210;51.502;10.722;2023-02-24T05:09:30;19.70;;;5.50;;
14251;SDS011;7210;51.502;10.722;2023-02-24T05:12:01;22.30;;;7.27;;
14251;SDS011;7210;51.502;10.722;2023-02-24T05:14:29;26.13;;;7.13;;
14251;SDS011;7210;51.502;10.722;2023-02-24T05:16:57;22.00;;;6.73;;
14251;SDS011;7210;51.502;10.722;2023-02-24T05:19:25;21.60;;;9.67;;
14251;SDS011;7210;51.502;10.722;2023-02-24T05:22:09;47.37;;;28.27;;
14251;SDS011;7210;51.502;10.722;2023-02-24T05:24:38;42.33;;;21.37;;
14251;SDS011;7210;51.502;10.722;2023-02-24T05:27:06;26.27;;;12.43;;
14251;SDS011;7210;51.502;10.722;2023-02-24T05:29:34;26.03;;;15.10;;
14251;SDS011;7210;51.502;10.722;2023-02-24T05:32:03;36.80;;;23.63;;
14251;SDS011;7210;51.502;10.722;2023-02-24T05:34:32;17.33;;;6.67;;
14251;SDS011;7210;51.502;10.722;2023-02-24T05:37:00;21.70;;;7.93;;
14251;SDS011;7210;51.502;10.722;2023-02-24T05:39:34;20.53;;;6.43;;
14251;SDS011;7210;51.502;10.722;2023-02-24T05:42:02;18.13;;;5.67;;
14251;SDS011;7210;51.502;10.722;2023-02-24T05:44:30;16.07;;;5.53;;
14251;SDS011;7210;51.502;10.722;2023-02-24T05:46:59;20.07;;;6.17;;
14251;SDS011;7210;51.502;10.722;2023-02-24T05:49:31;17.23;;;5.20;;
14251;SDS011;7210;51.502;10.722;2023-02-24T05:52:03;17.03;;;4.93;;
14251;SDS011;7210;51.502;10.722;2023-02-24T05:54:34;15.07;;;4.30;;
14251;SDS011;7210;51.502;10.722;2023-02-24T05:57:07;15.20;;;5.13;;
14251;SDS011;7210;51.502;10.722;2023-02-24T05:59:37;21.30;;;5.33;;
14251;SDS011;7210;51.502;10.722;2023-02-24T06:02:06;14.57;;;4.70;;
14251;SDS011;7210;51.502;10.722;2023-02-24T06:04:39;13.20;;;4.53;;
14251;SDS011;7210;51.502;10.722;2023-02-24T06:07:15;14.87;;;4.90;;
14251;SDS011;7210;51.502;10.722;2023-02-24T06:09:47;16.73;;;4.80;;
14251;SDS011;7210;51.502;10.722;2023-02-24T06:12:19;14.43;;;5.07;;
14251;SDS011;7210;51.502;10.722;2023-02-24T06:14:48;18.10;;;4.83;;
14251;SDS011;7210;51.502;10.722;2023-02-24T06:17:17;18.73;;;4.73;;
14251;SDS011;7210;51.502;10.722;2023-02-24T06:19:48;20.37;;;5.33;;
14251;SDS011;7210;51.502;10.722;2023-02-24T06:22:18;20.57;;;4.97;;
14251;SDS011;7210;51.502;10.722;2023-02-24T06:24:48;25.97;;;5.23;;
14251;SDS011;7210;51.502;10.722;2023-02-24T06:27:17;15.40;;;4.73;;
14251;SDS011;7210;51.502;10.722;2023-02-24T06:29:46;24.97;;;5.80;;
14251;SDS011;7210;51.502;10.722;2023-02-24T06:32:15;22.73;;;5.77;;
14251;SDS011;7210;51.502;10.722;2023-02-24T06:34:43;18.23;;;5.30;;
14251;SDS011;7210;51.502;10.722;2023-02-24T06:37:12;16.33;;;5.47;;
14251;SDS011;7210;51.502;10.722;2023-02-24T06:39:42;18.30;;;6.67;;
14251;SDS011;7210;51.502;10.722;2023-02-24T06:42:10;15.30;;;5.50;;
14251;SDS011;7210;51.502;10.722;2023-02-24T06:44:39;16.53;;;5.77;;
14251;SDS011;7210;51.502;10.722;2023-02-24T06:47:07;13.73;;;5.83;;
14251;SDS011;7210;51.502;10.722;2023-02-24T06:49:37;22.07;;;5.83;;
14251;SDS011;7210;51.502;10.722;2023-02-24T06:52:04;15.03;;;5.53;;
14251;SDS011;7210;51.502;10.722;2023-02-24T06:54:34;12.57;;;4.47;;
14251;SDS011;7210;51.502;10.722;2023-02-24T06:57:01;16.73;;;5.03;;
14251;SDS011;7210;51.502;10.722;2023-02-24T06:59:29;20.97;;;5.67;;
14251;SDS011;7210;51.502;10.722;2023-02-24T07:01:57;11.50;;;4.90;;
14251;SDS011;7210;51.502;10.722;2023-02-24T07:04:27;11.93;;;5.10;;
14251;SDS011;7210;51.502;10.722;2023-02-24T07:06:55;14.03;;;5.47;;
14251;SDS011;7210;51.502;10.722;2023-02-24T07:09:27;9.67;;;4.67;;
14251;SDS011;7210;51.502;10.722;2023-02-24T07:11:59;14.13;;;5.63;;
14251;SDS011;7210;51.502;10.722;2023-02-24T07:14:27;14.23;;;5.03;;
14251;SDS011;7210;51.502;10.722;2023-02-24T07:16:55;10.97;;;4.63;;
14251;SDS011;7210;51.502;10.722;2023-02-24T07:19:24;14.30;;;5.33;;
14251;SDS011;7210;51.502;10.722;2023-02-24T07:21:57;16.73;;;4.60;;
14251;SDS011;7210;51.502;10.722;2023-02-24T07:24:32;14.13;;;5.90;;
14251;SDS011;7210;51.502;10.722;2023-02-24T07:27:05;17.67;;;6.30;;
14251;SDS011;7210;51.502;10.722;2023-02-24T07:29:37;15.63;;;5.03;;
14251;SDS011;7210;51.502;10.722;2023-02-24T07:32:05;15.83;;;7.17;;
14251;SDS011;7210;51.502;10.722;2023-02-24T07:34:34;13.93;;;5.90;;
14251;SDS011;7210;51.502;10.722;2023-02-24T07:37:03;18.70;;;5.10;;
14251;SDS011;7210;51.502;10.722;2023-02-24T07:39:32;13.30;;;5.40;;
14251;SDS011;7210;51.502;10.722;2023-02-24T07:42:01;22.27;;;10.23;;
14251;SDS011;7210;51.502;10.722;2023-02-24T07:44:38;17.87;;;6.00;;
14251;SDS011;7210;51.502;10.722;2023-02-24T07:47:08;22.37;;;6.10;;
14251;SDS011;7210;51.502;10.722;2023-02-24T07:49:35;23.37;;;7.70;;
14251;SDS011;7210;51.502;10.722;2023-02-24T07:52:13;21.50;;;5.47;;
14251;SDS011;7210;51.502;10.722;2023-02-24T07:54:41;17.90;;;5.80;;
14251;SDS011;7210;51.502;10.722;2023-02-24T07:57:08;17.07;;;5.57;;
14251;SDS011;7210;51.502;10.722;2023-02-24T07:59:38;16.07;;;5.60;;
14251;SDS011;7210;51.502;10.722;2023-02-24T08:02:11;21.70;;;5.83;;
14251;SDS011;7210;51.502;10.722;2023-02-24T08:04:38;21.33;;;5.77;;
14251;SDS011;7210;51.502;10.722;2023-02-24T08:07:08;18.07;;;5.30;;
14251;SDS011;7210;51.502;10.722;2023-02-24T08:09:38;23.67;;;6.63;;
14251;SDS011;7210;51.502;10.722;2023-02-24T08:12:22;20.13;;;5.60;;
14251;SDS011;7210;51.502;10.722;2023-02-24T08:14:52;15.30;;;5.43;;
14251;SDS011;7210;51.502;10.722;2023-02-24T08:17:24;12.80;;;4.13;;
14251;SDS011;7210;51.502;10.722;2023-02-24T08:19:53;12.53;;;4.77;;
14251;SDS011;7210;51.502;10.722;2023-02-24T08:22:47;11.67;;;4.63;;
14251;SDS011;7210;51.502;10.722;2023-02-24T08:25:18;12.57;;;4.43;;
14251;SDS011;7210;51.502;10.722;2023-02-24T08:27:47;11.87;;;4.87;;
14251;SDS011;7210;51.502;10.722;2023-02-24T08:30:23;13.13;;;4.47;;
14251;SDS011;7210;51.502;10.722;2023-02-24T08:32:54;14.77;;;4.60;;
14251;SDS011;7210;51.502;10.722;2023-02-24T08:35:25;13.73;;;4.30;;
14251;SDS011;7210;51.502;10.722;2023-02-24T08:37:57;12.13;;;4.30;;
14251;SDS011;7210;51.502;10.722;2023-02-24T08:40:30;17.03;;;4.57;;
14251;SDS011;7210;51.502;10.722;2023-02-24T08:43:04;10.80;;;3.93;;
14251;SDS011;7210;51.502;10.722;2023-02-24T08:45:45;13.20;;;4.40;;
14251;SDS011;7210;51.502;10.722;2023-02-24T08:48:16;16.20;;;4.63;;
14251;SDS011;7210;51.502;10.722;2023-02-24T08:50:56;15.50;;;4.17;;
14251;SDS011;7210;51.502;10.722;2023-02-24T08:53:26;12.37;;;4.73;;
14251;SDS011;7210;51.502;10.722;2023-02-24T08:55:56;12.47;;;4.30;;
14251;SDS011;7210;51.502;10.722;2023-02-24T08:58:33;11.00;;;4.83;;
14251;SDS011;7210;51.502;10.722;2023-02-24T09:01:09;15.60;;;4.40;;
14251;SDS011;7210;51.502;10.722;2023-02-24T09:03:44;10.33;;;4.33;;
14251;SDS011;7210;51.502;10.722;2023-02-24T09:06:13;12.97;;;4.63;;
14251;SDS011;7210;51.502;10.722;2023-02-24T09:08:49;12.37;;;4.17;;
14251;SDS011;7210;51.502;10.722;2023-02-24T09:11:40;11.40;;;4.53;;
14251;SDS011;7210;51.502;10.722;2023-02-24T09:14:09;13.10;;;5.07;;
14251;SDS011;7210;51.502;10.722;2023-02-24T09:16:44;10.50;;;4.60;;
14251;SDS011;7210;51.502;10.722;2023-02-24T09:19:30;11.43;;;4.40;;
14251;SDS011;7210;51.502;10.722;2023-02-24T09:22:20;12.47;;;4.80;;
14251;SDS011;7210;51.502;10.722;2023-02-24T09:24:57;12.33;;;4.73;;
14251;SDS011;7210;51.502;10.722;2023-02-24T09:27:48;15.47;;;4.50;;
14251;SDS011;7210;51.502;10.722;2023-02-24T09:30:20;14.77;;;5.73;;
14251;SDS011;7210;51.502;10.722;2023-02-24T09:33:09;14.20;;;4.57;;
14251;SDS011;7210;51.502;10.722;2023-02-24T09:35:46;12.50;;;4.80;;
14251;SDS011;7210;51.502;10.722;2023-02-24T09:38:27;10.90;;;4.23;;
14251;SDS011;7210;51.502;10.722;2023-02-24T09:41:34;13.23;;;5.33;;
14251;SDS011;7210;51.502;10.722;2023-02-24T09:44:25;9.97;;;4.93;;
14251;SDS011;7210;51.502;10.722;2023-02-24T09:47:01;17.07;;;5.40;;
14251;SDS011;7210;51.502;10.722;2023-02-24T09:49:43;9.27;;;4.43;;
14251;SDS011;7210;51.502;10.722;2023-02-24T09:52:20;12.13;;;4.33;;
14251;SDS011;7210;51.502;10.722;2023-02-24T09:55:04;11.77;;;4.60;;
14251;SDS011;7210;51.502;10.722;2023-02-24T09:57:59;9.60;;;4.50;;
14251;SDS011;7210;51.502;10.722;2023-02-24T10:00:52;15.93;;;5.43;;
14251;SDS011;7210;51.502;10.722;2023-02-24T10:03:45;12.90;;;6.20;;
14251;SDS011;7210;51.502;10.722;2023-02-24T10:06:30;12.27;;;4.50;;
14251;SDS011;7210;51.502;10.722;2023-02-24T10:09:06;10.80;;;4.77;;
14251;SDS011;7210;51.502;10.722;2023-02-24T10:11:46;9.07;;;3.50;;
14251;SDS011;7210;51.502;10.722;2023-02-24T10:14:33;9.13;;;3.40;;
14251;SDS011;7210;51.502;10.722;2023-02-24T10:17:13;5.93;;;3.23;;
14251;SDS011;7210;51.502;10.722;2023-02-24T10:19:48;7.93;;;2.83;;
14251;SDS011;7210;51.502;10.722;2023-02-24T10:22:27;4.70;;;3.50;;
14251;SDS011;7210;51.502;10.722;2023-02-24T10:25:20;6.70;;;2.60;;
14251;SDS011;7210;51.502;10.722;2023-02-24T10:28:02;4.33;;;2.60;;
14251;SDS011;7210;51.502;10.722;2023-02-24T10:30:47;8.87;;;2.53;;
14251;SDS011;7210;51.502;10.722;2023-02-24T10:33:40;8.07;;;2.63;;
14251;SDS011;7210;51.502;10.722;2023-02-24T10:36:16;8.93;;;2.23;;
14251;SDS011;7210;51.502;10.722;2023-02-24T10:39:33;6.30;;;2.40;;
14251;SDS011;7210;51.502;10.722;2023-02-24T10:42:01;5.13;;;2.10;;
14251;SDS011;7210;51.502;10.722;2023-02-24T10:44:44;6.57;;;2.50;;
14251;SDS011;7210;51.502;10.722;2023-02-24T10:47:17;5.97;;;2.10;;
14251;SDS011;7210;51.502;10.722;2023-02-24T10:49:56;7.30;;;2.47;;
14251;SDS011;7210;51.502;10.722;2023-02-24T10:52:25;5.53;;;2.03;;
14251;SDS011;7210;51.502;10.722;2023-02-24T10:55:37;3.03;;;1.83;;
14251;SDS011;7210;51.502;10.722;2023-02-24T10:58:38;3.60;;;1.60;;
14251;SDS011;7210;51.502;10.722;2023-02-24T11:01:23;7.73;;;2.40;;
14251;SDS011;7210;51.502;10.722;2023-02-24T11:04:09;6.10;;;2.53;;
14251;SDS011;7210;51.502;10.722;2023-02-24T11:07:11;4.73;;;2.23;;
14251;SDS011;7210;51.502;10.722;2023-02-24T11:09:59;5.73;;;2.87;;
14251;SDS011;7210;51.502;10.722;2023-02-24T11:12:41;3.70;;;2.17;;
14251;SDS011;7210;51.502;10.722;2023-02-24T11:15:30;4.77;;;2.30;;
14251;SDS011;7210;51.502;10.722;2023-02-24T11:18:18;4.20;;;2.97;;
14251;SDS011;7210;51.502;10.722;2023-02-24T11:20:53;7.07;;;3.33;;
14251;SDS011;7210;51.502;10.722;2023-02-24T11:23:25;6.30;;;2.70;;
14251;SDS011;7210;51.502;10.722;2023-02-24T11:25:59;8.27;;;2.53;;
14251;SDS011;7210;51.502;10.722;2023-02-24T11:31:38;5.13;;;2.43;;
14251;SDS011;7210;51.502;10.722;2023-02-24T11:34:20;5.03;;;2.77;;
14251;SDS011;7210;51.502;10.722;2023-02-24T11:36:59;6.80;;;2.70;;
14251;SDS011;7210;51.502;10.722;2023-02-24T11:40:02;6.93;;;3.47;;
14251;SDS011;7210;51.502;10.722;2023-02-24T11:42:41;10.87;;;3.97;;
14251;SDS011;7210;51.502;10.722;2023-02-24T11:45:25;6.57;;;2.90;;
14251;SDS011;7210;51.502;10.722;2023-02-24T11:47:58;8.53;;;3.47;;
14251;SDS011;7210;51.502;10.722;2023-02-24T11:50:38;6.33;;;3.33;;
14251;SDS011;7210;51.502;10.722;2023-02-24T11:53:23;6.77;;;3.17;;
14251;SDS011;7210;51.502;10.722;2023-02-24T11:55:56;7.67;;;3.37;;
14251;SDS011;7210;51.502;10.722;2023-02-24T11:58:31;6.50;;;3.80;;
14251;SDS011;7210;51.502;10.722;2023-02-24T12:01:10;7.10;;;3.93;;
14251;SDS011;7210;51.502;10.722;2023-02-24T12:03:49;9.40;;;3.70;;
14251;SDS011;7210;51.502;10.722;2023-02-24T12:06:23;8.43;;;3.83;;
14251;SDS011;7210;51.502;10.722;2023-02-24T12:09:00;8.63;;;3.67;;
14251;SDS011;7210;51.502;10.722;2023-02-24T12:11:38;6.10;;;3.37;;
14251;SDS011;7210;51.502;10.722;2023-02-24T12:17:15;8.60;;;3.97;;
14251;SDS011;7210;51.502;10.722;2023-02-24T12:19:58;9.13;;;4.03;;
14251;SDS011;7210;51.502;10.722;2023-02-24T12:22:32;6.67;;;3.37;;
14251;SDS011;7210;51.502;10.722;2023-02-24T12:25:11;8.37;;;4.07;;
14251;SDS011;7210;51.502;10.722;2023-02-24T12:27:44;7.20;;;4.13;;
14251;SDS011;7210;51.502;10.722;2023-02-24T12:30:36;6.60;;;4.43;;
14251;SDS011;7210;51.502;10.722;2023-02-24T12:33:34;9.50;;;4.20;;
14251;SDS011;7210;51.502;10.722;2023-02-24T12:36:20;7.70;;;4.70;;
14251;SDS011;7210;51.502;10.722;2023-02-24T12:39:19;13.13;;;7.03;;
14251;SDS011;7210;51.502;10.722;2023-02-24T12:42:05;7.03;;;5.20;;
14251;SDS011;7210;51.502;10.722;2023-02-24T12:44:46;10.47;;;4.87;;
14251;SDS011;7210;51.502;10.722;2023-02-24T12:47:30;7.37;;;5.00;;
14251;SDS011;7210;51.502;10.722;2023-02-24T12:50:19;6.43;;;4.40;;
14251;SDS011;7210;51.502;10.722;2023-02-24T12:53:03;6.17;;;4.07;;
14251;SDS011;7210;51.502;10.722;2023-02-24T12:55:45;7.23;;;4.00;;
14251;SDS011;7210;51.502;10.722;2023-02-24T12:58:24;4.50;;;3.17;;
14251;SDS011;7210;51.502;10.722;2023-02-24T13:01:00;6.53;;;3.57;;
14251;SDS011;7210;51.502;10.722;2023-02-24T13:03:48;5.23;;;3.50;;
14251;SDS011;7210;51.502;10.722;2023-02-24T13:06:50;10.00;;;3.87;;
14251;SDS011;7210;51.502;10.722;2023-02-24T13:09:31;4.03;;;2.77;;
14251;SDS011;7210;51.502;10.722;2023-02-24T13:12:14;5.60;;;3.60;;
14251;SDS011;7210;51.502;10.722;2023-02-24T13:14:52;4.63;;;3.10;;
14251;SDS011;7210;51.502;10.722;2023-02-24T13:17:21;4.60;;;3.30;;
14251;SDS011;7210;51.502;10.722;2023-02-24T13:19:55;4.30;;;3.67;;
14251;SDS011;7210;51.502;10.722;2023-02-24T13:22:38;5.57;;;3.53;;
14251;SDS011;7210;51.502;10.722;2023-02-24T13:25:16;13.30;;;7.73;;
14251;SDS011;7210;51.502;10.722;2023-02-24T13:27:55;5.63;;;3.83;;
14251;SDS011;7210;51.502;10.722;2023-02-24T13:30:27;6.77;;;5.13;;
14251;SDS011;7210;51.502;10.722;2023-02-24T13:33:18;6.07;;;4.57;;
14251;SDS011;7210;51.502;10.722;2023-02-24T13:35:51;7.80;;;4.07;;
14251;SDS011;7210;51.502;10.722;2023-02-24T13:38:40;4.10;;;3.37;;
14251;SDS011;7210;51.502;10.722;2023-02-24T13:41:32;5.93;;;3.80;;
14251;SDS011;7210;51.502;10.722;2023-02-24T13:47:07;4.50;;;3.77;;
14251;SDS011;7210;51.502;10.722;2023-02-24T13:50:15;4.27;;;3.30;;
14251;SDS011;7210;51.502;10.722;2023-02-24T13:52:56;4.80;;;3.40;;
14251;SDS011;7210;51.502;10.722;2023-02-24T13:56:05;6.77;;;4.33;;
14251;SDS011;7210;51.502;10.722;2023-02-24T13:59:09;5.03;;;3.70;;
14251;SDS011;7210;51.502;10.722;2023-02-24T14:02:04;5.27;;;3.73;;
14251;SDS011;7210;51.502;10.722;2023-02-24T14:04:51;6.87;;;4.17;;
14251;SDS011;7210;51.502;10.722;2023-02-24T14:07:21;7.00;;;3.77;;
14251;SDS011;7210;51.502;10.722;2023-02-24T14:09:53;4.97;;;4.43;;
14251;SDS011;7210;51.502;10.722;2023-02-24T14:12:26;6.97;;;4.33;;
14251;SDS011;7210;51.502;10.722;2023-02-24T14:14:57;4.40;;;3.97;;
14251;SDS011;7210;51.502;10.722;2023-02-24T14:17:33;8.50;;;4.83;;
14251;SDS011;7210;51.502;10.722;2023-02-24T14:20:17;7.77;;;4.47;;
14251;SDS011;7210;51.502;10.722;2023-02-24T14:22:46;4.83;;;4.33;;
14251;SDS011;7210;51.502;10.722;2023-02-24T14:25:17;6.47;;;4.63;;
14251;SDS011;7210;51.502;10.722;2023-02-24T14:27:47;5.23;;;4.57;;
14251;SDS011;7210;51.502;10.722;2023-02-24T14:30:25;7.23;;;4.97;;
14251;SDS011;7210;51.502;10.722;2023-02-24T14:32:58;6.97;;;5.20;;
14251;SDS011;7210;51.502;10.722;2023-02-24T14:35:29;8.50;;;5.43;;
14251;SDS011;7210;51.502;10.722;2023-02-24T14:38:00;8.20;;;5.77;;
14251;SDS011;7210;51.502;10.722;2023-02-24T14:40:29;7.50;;;5.63;;
14251;SDS011;7210;51.502;10.722;2023-02-24T14:42:57;8.53;;;5.90;;
14251;SDS011;7210;51.502;10.722;2023-02-24T14:45:25;7.53;;;5.33;;
14251;SDS011;7210;51.502;10.722;2023-02-24T14:47:55;8.50;;;5.70;;
14251;SDS011;7210;51.502;10.722;2023-02-24T14:50:23;6.83;;;6.10;;
14251;SDS011;7210;51.502;10.722;2023-02-24T14:52:56;8.87;;;6.50;;
14251;SDS011;7210;51.502;10.722;2023-02-24T14:55:30;7.27;;;6.23;;
14251;SDS011;7210;51.502;10.722;2023-02-24T14:58:04;6.50;;;5.90;;
14251;SDS011;7210;51.502;10.722;2023-02-24T15:00:39;8.73;;;6.77;;
14251;SDS011;7210;51.502;10.722;2023-02-24T15:03:14;6.53;;;5.93;;
14251;SDS011;7210;51.502;10.722;2023-02-24T15:05:51;7.93;;;5.97;;
14251;SDS011;7210;51.502;10.722;2023-02-24T15:08:25;8.63;;;7.03;;
14251;SDS011;7210;51.502;10.722;2023-02-24T15:10:59;8.47;;;7.63;;
14251;SDS011;7210;51.502;10.722;2023-02-24T15:13:45;9.33;;;8.30;;
14251;SDS011;7210;51.502;10.722;2023-02-24T15:16:17;9.63;;;8.10;;
14251;SDS011;7210;51.502;10.722;2023-02-24T15:18:49;9.30;;;8.03;;
14251;SDS011;7210;51.502;10.722;2023-02-24T15:21:19;21.10;;;14.80;;
14251;SDS011;7210;51.502;10.722;2023-02-24T15:23:57;25.63;;;19.13;;
14251;SDS011;7210;51.502;10.722;2023-02-24T15:26:27;29.10;;;22.37;;
14251;SDS011;7210;51.502;10.722;2023-02-24T15:29:01;18.83;;;15.47;;
14251;SDS011;7210;51.502;10.722;2023-02-24T15:31:38;15.03;;;10.53;;
14251;SDS011;7210;51.502;10.722;2023-02-24T15:34:12;11.23;;;8.90;;
14251;SDS011;7210;51.502;10.722;2023-02-24T15:36:45;11.00;;;8.83;;
14251;SDS011;7210;51.502;10.722;2023-02-24T15:39:16;23.07;;;19.50;;
14251;SDS011;7210;51.502;10.722;2023-02-24T15:41:48;12.90;;;9.60;;
14251;SDS011;7210;51.502;10.722;2023-02-24T15:44:24;14.27;;;12.53;;
14251;SDS011;7210;51.502;10.722;2023-02-24T15:46:53;12.10;;;8.20;;
14251;SDS011;7210;51.502;10.722;2023-02-24T15:49:21;11.10;;;8.67;;